ENML/MOL METAR and TAF weather

Enter ICAO airport designator
Station Type Date Time Source
ENML METAR 2018/04/19 12:50 UTC NOAA

ENML 191250Z 08007KT CAVOK 17/07 Q1020


Station Type Date Time Source
ENML Decoded METAR 2018/04/19 12:50 UTC NOAA

Molde / Aro, Norway (ENML) 62-45N 007-16E 3M
Apr 19, 2018 - 08:50 AM EDT / 2018.04.19 1250 UTC
Wind: from the E (080 degrees) at 8 MPH (7 KT):0
Visibility: greater than 7 mile(s):0
Temperature: 62 F (17 C)
Dew Point: 44 F (7 C)
Relative Humidity: 51%
Pressure (altimeter): 30.12 in. Hg (1020 hPa)
ob: ENML 191250Z 08007KT CAVOK 17/07 Q1020
cycle: 13

Station Type Date Time Source
ENML TAF UTC NOAA

Error!


Example: see airport list